createdAt,value
2023-03-12T00:01:18.861Z,68.06
2023-03-12T00:03:46.875Z,67.92
2023-03-12T00:06:13.378Z,67.60
2023-03-12T00:08:41.030Z,67.62
2023-03-12T00:11:13.086Z,67.61
2023-03-12T00:13:40.041Z,67.84
2023-03-12T00:16:12.321Z,68.03
2023-03-12T00:18:39.378Z,68.16
2023-03-12T00:21:06.811Z,67.97
2023-03-12T00:23:33.452Z,67.86
2023-03-12T00:26:01.933Z,67.62
2023-03-12T00:28:28.430Z,67.64
2023-03-12T00:30:57.164Z,67.95
2023-03-12T00:33:25.355Z,67.97
2023-03-12T00:35:52.234Z,67.47
2023-03-12T00:38:18.615Z,67.75
2023-03-12T00:40:45.139Z,67.86
2023-03-12T00:43:11.487Z,67.31
2023-03-12T00:45:38.005Z,67.72
2023-03-12T00:48:04.509Z,67.70
2023-03-12T00:50:30.906Z,67.58
2023-03-12T00:52:57.345Z,67.31
2023-03-12T00:55:23.673Z,67.54
2023-03-12T00:57:49.988Z,67.73
2023-03-12T01:00:17.054Z,67.69
2023-03-12T01:02:43.391Z,67.58
2023-03-12T01:05:12.346Z,67.63
2023-03-12T01:07:39.537Z,67.38
2023-03-12T01:10:08.101Z,67.53
2023-03-12T01:12:35.077Z,67.06
2023-03-12T01:15:02.270Z,66.94
2023-03-12T01:17:28.634Z,66.73
2023-03-12T01:19:55.073Z,67.09
2023-03-12T01:22:21.445Z,67.12
2023-03-12T01:24:48.189Z,67.40
2023-03-12T01:27:14.707Z,67.25
2023-03-12T01:29:41.125Z,67.30
2023-03-12T01:32:08.041Z,67.05
2023-03-12T01:34:35.550Z,67.28
2023-03-12T01:37:02.184Z,66.91
2023-03-12T01:39:28.812Z,67.11
2023-03-12T01:41:55.460Z,67.10
2023-03-12T01:44:21.832Z,67.19
2023-03-12T01:46:48.190Z,66.96
2023-03-12T01:49:30.639Z,67.24
2023-03-12T01:52:05.962Z,67.41
2023-03-12T01:54:47.097Z,67.08
2023-03-12T01:57:18.009Z,67.13
2023-03-12T01:59:51.885Z,67.41
2023-03-12T02:02:23.524Z,67.51
2023-03-12T02:04:52.222Z,67.66
2023-03-12T02:07:18.634Z,67.68
2023-03-12T02:09:49.339Z,67.49
2023-03-12T02:12:17.369Z,67.53
2023-03-12T02:14:44.016Z,67.82
2023-03-12T02:17:11.346Z,67.67
2023-03-12T02:20:07.784Z,67.82
2023-03-12T02:22:35.560Z,67.81
2023-03-12T02:25:16.434Z,67.63
2023-03-12T02:27:43.379Z,67.62
2023-03-12T02:30:10.646Z,67.35
2023-03-12T02:32:39.593Z,67.33
2023-03-12T02:35:06.489Z,67.50
2023-03-12T02:37:32.890Z,67.58
2023-03-12T02:40:51.748Z,67.54
2023-03-12T02:43:21.619Z,67.39
2023-03-12T02:45:48.166Z,67.52
2023-03-12T02:48:14.556Z,67.47
2023-03-12T02:50:40.982Z,67.37
2023-03-12T02:53:07.332Z,67.91
2023-03-12T02:55:33.749Z,67.37
2023-03-12T02:58:00.476Z,67.16
2023-03-12T03:00:26.841Z,67.26
2023-03-12T03:02:53.198Z,67.01
2023-03-12T03:05:20.429Z,67.39
2023-03-12T03:07:46.833Z,67.53
2023-03-12T03:10:15.118Z,67.35
2023-03-12T03:12:41.452Z,67.19
2023-03-12T03:15:08.415Z,67.12
2023-03-12T03:17:34.784Z,67.29
2023-03-12T03:20:01.178Z,67.43
2023-03-12T03:22:27.594Z,67.45
2023-03-12T03:24:54.468Z,67.20
2023-03-12T03:27:20.992Z,67.21
2023-03-12T03:29:47.402Z,67.05
2023-03-12T03:32:14.034Z,66.97
2023-03-12T03:34:40.470Z,67.07
2023-03-12T03:37:06.908Z,66.68
2023-03-12T03:39:34.688Z,66.49
2023-03-12T03:42:01.034Z,66.66
2023-03-12T03:44:27.436Z,66.41
2023-03-12T03:46:55.328Z,66.49
2023-03-12T03:49:22.294Z,66.21
2023-03-12T03:51:49.932Z,66.20
2023-03-12T03:54:16.363Z,66.47
2023-03-12T03:56:42.711Z,66.27
2023-03-12T03:59:09.539Z,66.15
2023-03-12T04:01:36.791Z,66.52
2023-03-12T04:04:04.343Z,66.61
2023-03-12T04:06:31.901Z,66.48
2023-03-12T04:08:59.075Z,66.30
2023-03-12T04:11:25.726Z,66.47
2023-03-12T04:13:52.152Z,66.45
2023-03-12T04:16:18.808Z,66.15
2023-03-12T04:18:45.444Z,66.42
2023-03-12T04:21:13.678Z,66.78
2023-03-12T04:23:40.345Z,66.41
2023-03-12T04:26:07.271Z,66.22
2023-03-12T04:28:34.728Z,66.23
2023-03-12T04:31:03.869Z,66.25
2023-03-12T04:33:34.356Z,66.01
2023-03-12T04:36:01.094Z,65.95
2023-03-12T04:38:28.273Z,66.25
2023-03-12T04:41:02.574Z,66.46
2023-03-12T04:43:30.532Z,65.87
2023-03-12T04:45:57.816Z,66.34
2023-03-12T04:48:25.460Z,66.17
2023-03-12T04:50:51.928Z,66.07
2023-03-12T04:53:19.091Z,66.06
2023-03-12T04:55:45.515Z,66.13
2023-03-12T04:58:11.922Z,66.10
2023-03-12T05:00:39.838Z,66.00
2023-03-12T05:03:06.571Z,66.10
2023-03-12T05:05:33.152Z,65.66
2023-03-12T05:07:59.715Z,65.64
2023-03-12T05:10:26.161Z,65.61
2023-03-12T05:12:52.587Z,65.49
2023-03-12T05:15:19.826Z,65.78
2023-03-12T05:17:46.174Z,65.54
2023-03-12T05:20:13.596Z,65.84
2023-03-12T05:22:40.270Z,65.77
2023-03-12T05:25:06.998Z,65.48
2023-03-12T05:27:33.640Z,65.46
2023-03-12T05:30:00.093Z,65.59
2023-03-12T05:32:26.549Z,65.78
2023-03-12T05:34:53.139Z,65.29
2023-03-12T05:37:19.498Z,65.41
2023-03-12T05:39:46.846Z,65.55
2023-03-12T05:42:16.342Z,65.96
2023-03-12T05:44:42.986Z,65.79
2023-03-12T05:47:09.625Z,66.09
2023-03-12T05:49:36.059Z,65.47
2023-03-12T05:52:02.484Z,65.57
2023-03-12T05:54:29.309Z,65.56
2023-03-12T05:56:56.280Z,65.70
2023-03-12T05:59:22.688Z,65.37
2023-03-12T06:01:49.279Z,65.82
2023-03-12T06:04:15.684Z,65.78
2023-03-12T06:06:42.200Z,65.62
2023-03-12T06:09:08.626Z,65.63
2023-03-12T06:11:35.061Z,65.79
2023-03-12T06:14:01.553Z,65.50
2023-03-12T06:16:29.604Z,65.69
2023-03-12T06:18:58.306Z,65.45
2023-03-12T06:21:27.675Z,65.47
2023-03-12T06:23:54.191Z,65.45
2023-03-12T06:26:21.693Z,65.51
2023-03-12T06:28:49.623Z,65.30
2023-03-12T06:31:16.358Z,65.66
2023-03-12T06:33:42.948Z,65.50
2023-03-12T06:36:10.982Z,65.40
2023-03-12T06:38:37.969Z,65.21
2023-03-12T06:41:13.112Z,65.59
2023-03-12T06:43:40.598Z,65.35
2023-03-12T06:46:09.483Z,65.54
2023-03-12T06:48:36.853Z,65.10
2023-03-12T06:51:07.234Z,65.47
2023-03-12T06:53:33.817Z,65.86
2023-03-12T06:56:00.259Z,65.39
2023-03-12T06:58:26.645Z,64.77
2023-03-12T07:00:55.013Z,64.66
2023-03-12T07:03:21.400Z,64.81
2023-03-12T07:05:50.162Z,64.82
2023-03-12T07:08:18.628Z,65.09
2023-03-12T07:10:46.006Z,64.48
2023-03-12T07:13:12.737Z,64.19
2023-03-12T07:15:39.247Z,64.33
2023-03-12T07:18:07.735Z,64.02
2023-03-12T07:20:37.834Z,64.11
2023-03-12T07:23:04.722Z,64.14
2023-03-12T07:25:31.407Z,64.01
2023-03-12T07:27:57.759Z,64.71
2023-03-12T07:30:24.089Z,64.93
2023-03-12T07:32:50.450Z,64.67
2023-03-12T07:35:16.920Z,64.67
2023-03-12T07:37:43.320Z,64.86
2023-03-12T07:40:10.596Z,64.61
2023-03-12T07:42:36.966Z,64.63
2023-03-12T07:45:04.163Z,64.62
2023-03-12T07:47:31.045Z,64.65
2023-03-12T07:49:57.557Z,64.41
2023-03-12T07:52:23.971Z,65.01
2023-03-12T07:54:52.732Z,64.28
2023-03-12T07:57:19.215Z,64.34
2023-03-12T07:59:47.084Z,63.95
2023-03-12T08:02:14.184Z,63.13
2023-03-12T08:04:40.936Z,63.78
2023-03-12T08:07:09.333Z,63.83
2023-03-12T08:09:38.635Z,63.92
2023-03-12T08:12:06.402Z,63.40
2023-03-12T08:14:33.232Z,62.61
2023-03-12T08:16:59.974Z,63.25
2023-03-12T08:19:27.617Z,63.17
2023-03-12T08:21:54.242Z,62.58
2023-03-12T08:24:21.923Z,62.10
2023-03-12T08:26:48.389Z,62.43
2023-03-12T08:29:15.813Z,62.15
2023-03-12T08:31:57.556Z,62.24
2023-03-12T08:34:28.937Z,61.97
2023-03-12T08:36:56.272Z,62.22
2023-03-12T08:39:22.722Z,62.11
2023-03-12T08:41:49.273Z,62.53
2023-03-12T08:44:15.672Z,62.86
2023-03-12T08:46:42.344Z,63.04
2023-03-12T08:49:08.715Z,63.23
2023-03-12T08:51:35.073Z,62.97
2023-03-12T08:54:01.427Z,62.99
2023-03-12T08:56:27.774Z,63.00
2023-03-12T08:58:54.122Z,63.00
2023-03-12T09:01:20.590Z,62.96
2023-03-12T09:03:49.424Z,63.23
2023-03-12T09:06:16.778Z,63.26
2023-03-12T09:08:44.316Z,63.80
2023-03-12T09:11:12.194Z,63.59
2023-03-12T09:14:02.531Z,63.67
2023-03-12T09:16:25.857Z,63.52
2023-03-12T09:18:52.433Z,63.69
2023-03-12T09:21:18.965Z,63.88
2023-03-12T09:23:45.326Z,64.46
2023-03-12T09:26:13.790Z,64.28
2023-03-12T09:28:40.166Z,64.60
2023-03-12T09:31:06.875Z,64.18
2023-03-12T09:33:36.825Z,64.79
2023-03-12T09:36:03.475Z,64.56
2023-03-12T09:38:31.890Z,64.47
2023-03-12T09:40:58.741Z,64.74
2023-03-12T09:43:39.984Z,64.67
2023-03-12T09:46:14.753Z,64.46
2023-03-12T09:48:41.799Z,64.93
2023-03-12T09:51:20.144Z,64.57
2023-03-12T09:53:51.102Z,64.94
2023-03-12T09:56:20.819Z,64.87
2023-03-12T09:58:48.814Z,64.98
2023-03-12T10:01:49.203Z,65.04
2023-03-12T10:04:24.763Z,65.05
2023-03-12T10:07:09.962Z,65.21
2023-03-12T10:10:00.338Z,65.05
2023-03-12T10:13:00.367Z,65.20
2023-03-12T10:15:45.875Z,65.30
2023-03-12T10:18:28.385Z,65.33
2023-03-12T10:21:07.467Z,65.77
2023-03-12T10:24:08.379Z,66.01
2023-03-12T10:26:43.269Z,66.21
2023-03-12T10:29:15.941Z,66.35
2023-03-12T10:31:51.133Z,66.11
2023-03-12T10:34:24.166Z,66.34
2023-03-12T10:36:50.989Z,66.59
2023-03-12T10:39:19.385Z,66.47
2023-03-12T10:41:47.720Z,66.72
2023-03-12T10:44:21.273Z,66.74
2023-03-12T10:47:02.734Z,66.95
2023-03-12T10:49:31.802Z,66.57
2023-03-12T10:51:58.112Z,66.94
2023-03-12T10:54:37.261Z,66.96
2023-03-12T10:57:04.309Z,66.94
2023-03-12T10:59:34.157Z,67.35
2023-03-12T11:02:01.757Z,67.18
2023-03-12T11:04:30.937Z,67.50
2023-03-12T11:07:07.769Z,67.59
2023-03-12T11:09:34.285Z,67.87
2023-03-12T11:12:00.853Z,67.94
2023-03-12T11:14:29.912Z,67.73
2023-03-12T11:16:57.230Z,67.66
2023-03-12T11:19:31.081Z,67.58
2023-03-12T11:22:00.421Z,67.83
2023-03-12T11:24:27.174Z,67.79
2023-03-12T11:27:03.528Z,67.76
2023-03-12T11:29:40.282Z,68.18
2023-03-12T11:32:16.365Z,67.85
2023-03-12T11:34:43.316Z,68.36
2023-03-12T11:37:40.447Z,68.57
2023-03-12T11:40:17.170Z,68.37
2023-03-12T11:43:08.789Z,68.48
2023-03-12T11:45:40.713Z,68.67
2023-03-12T11:48:24.318Z,68.74
2023-03-12T11:50:57.007Z,68.36
2023-03-12T11:54:02.404Z,68.90
2023-03-12T11:56:40.922Z,68.72
2023-03-12T11:59:15.972Z,68.50
2023-03-12T12:01:52.973Z,68.71
2023-03-12T12:04:47.539Z,68.78
2023-03-12T12:07:32.748Z,69.05
2023-03-12T12:10:15.493Z,68.33
2023-03-12T12:12:59.032Z,68.65
2023-03-12T12:15:54.952Z,68.78
2023-03-12T12:18:38.859Z,69.00
2023-03-12T12:21:14.319Z,68.69
2023-03-12T12:23:59.218Z,68.51
2023-03-12T12:26:57.709Z,69.06
2023-03-12T12:29:56.409Z,68.73
2023-03-12T12:32:52.282Z,68.93
2023-03-12T12:35:28.907Z,68.65
2023-03-12T12:38:05.160Z,68.44
2023-03-12T12:40:47.812Z,68.59
2023-03-12T12:43:32.230Z,68.62
2023-03-12T12:46:06.227Z,68.59
2023-03-12T12:48:40.603Z,68.90
2023-03-12T12:51:09.291Z,68.92
2023-03-12T12:54:04.498Z,69.16
2023-03-12T12:56:39.254Z,69.09
2023-03-12T12:59:21.356Z,69.03
2023-03-12T13:01:50.374Z,68.98
2023-03-12T13:04:32.202Z,69.19
2023-03-12T13:07:13.897Z,69.47
2023-03-12T13:09:46.099Z,69.48
2023-03-12T13:12:30.616Z,69.47
2023-03-12T13:14:58.201Z,69.72
2023-03-12T13:17:36.029Z,69.76
2023-03-12T13:20:20.690Z,69.59
2023-03-12T13:23:05.652Z,69.97
2023-03-12T13:26:00.111Z,69.89
2023-03-12T13:28:26.627Z,70.18
2023-03-12T13:30:53.851Z,70.49
2023-03-12T13:33:40.344Z,70.62
2023-03-12T13:36:23.407Z,70.52
2023-03-12T13:38:53.429Z,70.58
2023-03-12T13:41:46.086Z,70.58
2023-03-12T13:44:29.657Z,70.93
2023-03-12T13:47:11.224Z,70.71
2023-03-12T13:49:47.413Z,70.86
2023-03-12T13:52:13.802Z,71.17
2023-03-12T13:54:43.843Z,71.26
2023-03-12T13:57:32.242Z,71.24
2023-03-12T13:59:59.805Z,71.69
2023-03-12T14:02:36.620Z,71.29
2023-03-12T14:05:06.275Z,71.58
2023-03-12T14:08:18.040Z,71.91
2023-03-12T14:10:47.032Z,71.99
2023-03-12T14:14:01.584Z,71.72
2023-03-12T14:16:49.248Z,71.71
2023-03-12T14:19:24.884Z,71.75
2023-03-12T14:21:53.053Z,72.06
2023-03-12T14:24:27.892Z,72.27
2023-03-12T14:26:55.668Z,72.14
2023-03-12T14:29:45.034Z,72.32
2023-03-12T14:32:19.210Z,72.16
2023-03-12T14:34:49.746Z,72.40
2023-03-12T14:37:17.909Z,72.57
2023-03-12T14:39:54.139Z,72.36
2023-03-12T14:42:28.777Z,72.49
2023-03-12T14:45:18.569Z,72.15
2023-03-12T14:47:47.919Z,72.10
2023-03-12T14:50:37.633Z,72.14
2023-03-12T14:53:19.782Z,72.03
2023-03-12T14:55:46.245Z,72.11
2023-03-12T14:58:18.608Z,72.08
2023-03-12T15:00:45.944Z,72.42
2023-03-12T15:03:16.474Z,72.33
2023-03-12T15:05:47.664Z,72.42
2023-03-12T15:08:14.611Z,72.72
2023-03-12T15:10:47.175Z,73.02
2023-03-12T15:13:13.710Z,73.27
2023-03-12T15:15:42.830Z,73.36
2023-03-12T15:18:17.715Z,73.45
2023-03-12T15:20:45.561Z,73.44
2023-03-12T15:23:14.169Z,73.09
2023-03-12T15:25:40.740Z,73.01
2023-03-12T15:28:10.217Z,72.68
2023-03-12T15:30:38.749Z,72.76
2023-03-12T15:33:09.659Z,72.77
2023-03-12T15:35:40.056Z,72.75
2023-03-12T15:38:14.140Z,72.74
2023-03-12T15:40:40.777Z,72.70
2023-03-12T15:43:20.102Z,72.46
2023-03-12T15:45:47.654Z,72.37
2023-03-12T15:48:31.994Z,72.33
2023-03-12T15:51:15.001Z,72.07
2023-03-12T15:53:41.359Z,72.09
2023-03-12T15:56:10.363Z,72.02
2023-03-12T15:58:39.910Z,71.73
2023-03-12T16:01:27.952Z,71.71
2023-03-12T16:03:54.679Z,71.44
2023-03-12T16:06:25.190Z,71.18
2023-03-12T16:08:59.051Z,71.09
2023-03-12T16:11:31.303Z,70.69
2023-03-12T16:14:32.588Z,70.51
2023-03-12T16:16:59.046Z,70.33
2023-03-12T16:19:29.149Z,70.12
2023-03-12T16:21:55.598Z,69.91
2023-03-12T16:24:21.928Z,69.73
2023-03-12T16:26:57.805Z,69.72
2023-03-12T16:29:38.142Z,69.64
2023-03-12T16:32:13.158Z,69.15
2023-03-12T16:34:40.021Z,69.28
2023-03-12T16:37:10.281Z,68.85
2023-03-12T16:39:36.673Z,68.47
2023-03-12T16:42:05.629Z,68.59
2023-03-12T16:44:34.753Z,68.58
2023-03-12T16:47:01.247Z,68.30
2023-03-12T16:49:27.828Z,68.05
2023-03-12T16:52:00.258Z,68.16
2023-03-12T16:54:26.584Z,67.82
2023-03-12T16:56:55.969Z,67.95
2023-03-12T16:59:27.508Z,67.63
2023-03-12T17:01:54.171Z,67.42
2023-03-12T17:04:20.674Z,67.55
2023-03-12T17:06:47.097Z,67.39
2023-03-12T17:09:13.499Z,67.17
2023-03-12T17:11:40.794Z,66.97
2023-03-12T17:14:21.486Z,67.55
2023-03-12T17:16:48.349Z,67.22
2023-03-12T17:19:14.911Z,66.84
2023-03-12T17:21:48.269Z,66.99
2023-03-12T17:24:14.827Z,66.88
2023-03-12T17:26:42.939Z,66.61
2023-03-12T17:29:10.192Z,66.75
2023-03-12T17:31:37.606Z,66.56
2023-03-12T17:34:04.921Z,66.63
2023-03-12T17:36:31.362Z,66.32
2023-03-12T17:38:57.751Z,66.32
2023-03-12T17:41:27.039Z,66.40
2023-03-12T17:43:55.136Z,66.40
2023-03-12T17:46:22.062Z,66.26
2023-03-12T17:48:48.486Z,66.26
2023-03-12T17:51:14.885Z,66.19
2023-03-12T17:53:41.821Z,66.34
2023-03-12T17:56:08.631Z,66.52
2023-03-12T17:58:35.477Z,66.44
2023-03-12T18:01:01.944Z,66.70
2023-03-12T18:03:28.333Z,66.87
2023-03-12T18:05:55.027Z,66.64
2023-03-12T18:08:21.873Z,66.89
2023-03-12T18:10:48.931Z,66.95
2023-03-12T18:13:15.334Z,66.85
2023-03-12T18:15:41.773Z,66.94
2023-03-12T18:18:08.336Z,66.73
2023-03-12T18:20:39.396Z,66.58
2023-03-12T18:23:06.561Z,66.40
2023-03-12T18:25:32.937Z,66.61
2023-03-12T18:27:59.309Z,66.64
2023-03-12T18:30:26.142Z,66.66
2023-03-12T18:32:52.513Z,66.75
2023-03-12T18:35:18.951Z,66.70
2023-03-12T18:37:46.041Z,66.71
2023-03-12T18:40:13.121Z,66.41
2023-03-12T18:42:44.197Z,66.50
2023-03-12T18:45:11.867Z,66.50
2023-03-12T18:47:44.565Z,66.52
2023-03-12T18:50:12.657Z,66.38
2023-03-12T18:52:39.086Z,66.36
2023-03-12T18:55:05.722Z,66.35
2023-03-12T18:57:32.080Z,66.38
2023-03-12T18:59:59.272Z,66.40
2023-03-12T19:02:25.887Z,66.37
2023-03-12T19:04:54.204Z,66.31
2023-03-12T19:07:22.236Z,66.22
2023-03-12T19:09:48.830Z,66.35
2023-03-12T19:12:15.161Z,66.45
2023-03-12T19:14:41.616Z,66.51
2023-03-12T19:17:07.946Z,66.56
2023-03-12T19:19:34.270Z,66.50
2023-03-12T19:22:00.630Z,66.52
2023-03-12T19:24:27.140Z,66.49
2023-03-12T19:26:53.462Z,66.38
2023-03-12T19:29:19.920Z,66.40
2023-03-12T19:31:46.354Z,66.65
2023-03-12T19:34:12.793Z,66.71
2023-03-12T19:36:39.353Z,66.53
2023-03-12T19:39:18.799Z,66.63
2023-03-12T19:41:46.796Z,66.66
2023-03-12T19:44:13.173Z,66.93
2023-03-12T19:46:42.872Z,66.89
2023-03-12T19:49:09.371Z,66.98
2023-03-12T19:51:36.044Z,67.07
2023-03-12T19:54:02.499Z,66.97
2023-03-12T19:56:29.372Z,67.10
2023-03-12T19:58:55.774Z,67.25
2023-03-12T20:01:22.950Z,67.16
2023-03-12T20:03:49.555Z,67.38
2023-03-12T20:06:16.525Z,67.38
2023-03-12T20:08:44.486Z,67.50
2023-03-12T20:11:11.588Z,67.46
2023-03-12T20:13:38.814Z,67.40
2023-03-12T20:16:06.990Z,67.42
2023-03-12T20:18:34.094Z,67.58
2023-03-12T20:21:00.813Z,67.49
2023-03-12T20:23:27.191Z,67.54
2023-03-12T20:25:53.803Z,67.34
2023-03-12T20:28:20.230Z,67.43
2023-03-12T20:30:46.744Z,67.42
2023-03-12T20:33:13.590Z,67.32
2023-03-12T20:35:40.066Z,67.22
2023-03-12T20:38:06.604Z,67.13
2023-03-12T20:40:32.969Z,66.98
2023-03-12T20:43:02.481Z,67.07
2023-03-12T20:45:28.870Z,66.67
2023-03-12T20:47:55.301Z,66.70
2023-03-12T20:50:21.649Z,66.71
2023-03-12T20:52:48.048Z,66.64
2023-03-12T20:55:14.500Z,66.56
2023-03-12T20:57:40.850Z,66.56
2023-03-12T21:00:07.923Z,66.47
2023-03-12T21:02:34.785Z,66.38
2023-03-12T21:05:01.259Z,66.41
2023-03-12T21:07:27.681Z,66.26
2023-03-12T21:09:53.979Z,66.22
2023-03-12T21:12:20.295Z,66.14
2023-03-12T21:14:46.702Z,66.02
2023-03-12T21:17:13.770Z,66.03
2023-03-12T21:19:41.589Z,66.05
2023-03-12T21:22:08.892Z,65.95
2023-03-12T21:24:35.622Z,65.66
2023-03-12T21:27:02.144Z,65.75
2023-03-12T21:29:28.698Z,65.43
2023-03-12T21:31:55.019Z,65.59
2023-03-12T21:34:22.169Z,65.42
2023-03-12T21:36:48.708Z,65.27
2023-03-12T21:39:15.043Z,65.30
2023-03-12T21:41:41.442Z,65.72
2023-03-12T21:44:07.818Z,65.35
2023-03-12T21:46:34.629Z,65.37
2023-03-12T21:49:01.088Z,65.34
2023-03-12T21:51:27.560Z,65.43
2023-03-12T21:53:55.189Z,65.28
2023-03-12T21:56:22.004Z,65.40
2023-03-12T21:58:48.418Z,65.13
2023-03-12T22:01:17.204Z,65.08
2023-03-12T22:03:45.480Z,65.37
2023-03-12T22:06:13.186Z,64.93
2023-03-12T22:08:40.112Z,65.16
2023-03-12T22:11:07.901Z,65.00
2023-03-12T22:13:34.398Z,64.99
2023-03-12T22:16:03.994Z,65.17
2023-03-12T22:18:30.433Z,65.17
2023-03-12T22:21:00.501Z,65.08
2023-03-12T22:23:27.509Z,65.05
2023-03-12T22:25:54.055Z,64.96
2023-03-12T22:28:20.707Z,65.04
2023-03-12T22:30:47.447Z,64.88
2023-03-12T22:33:13.862Z,65.10
2023-03-12T22:35:47.534Z,64.96
2023-03-12T22:38:14.381Z,64.82
2023-03-12T22:40:41.936Z,64.84
2023-03-12T22:43:08.301Z,64.80
2023-03-12T22:45:35.503Z,64.86
2023-03-12T22:48:02.018Z,64.69
2023-03-12T22:50:28.439Z,64.74
2023-03-12T22:52:54.808Z,64.72
2023-03-12T22:55:21.207Z,64.58
2023-03-12T22:57:47.554Z,64.81
2023-03-12T23:00:16.227Z,64.71
2023-03-12T23:02:42.547Z,64.84
2023-03-12T23:05:09.834Z,64.66
2023-03-12T23:07:36.751Z,64.72
2023-03-12T23:10:04.315Z,64.70
2023-03-12T23:12:30.778Z,64.65
2023-03-12T23:14:57.099Z,64.56
2023-03-12T23:17:23.589Z,64.54
2023-03-12T23:19:50.395Z,64.48
2023-03-12T23:22:16.810Z,64.47
2023-03-12T23:24:43.231Z,64.42
2023-03-12T23:27:09.647Z,64.56
2023-03-12T23:29:36.038Z,64.54
2023-03-12T23:32:02.583Z,64.58
2023-03-12T23:34:29.063Z,64.69
2023-03-12T23:36:55.516Z,64.53
2023-03-12T23:39:21.931Z,64.63
2023-03-12T23:41:48.284Z,64.38
2023-03-12T23:44:14.700Z,64.29
2023-03-12T23:46:45.009Z,64.23
2023-03-12T23:49:12.400Z,64.04
2023-03-12T23:51:40.764Z,64.25
2023-03-12T23:54:07.348Z,64.16
2023-03-12T23:56:36.420Z,64.22
2023-03-12T23:59:04.235Z,64.23
